Allston, Massachusetts
Current Conditions -  °F | °C
As of 9:13 AM on Saturday 01 Nov 2014 (Local Time) from KBOS Reporting Station
Overcast Overcast  
Wind Chill: 37°   Ceiling: 1500
Heat Index: 45°   Visibility: 10mi
Dew Point: 37°   Wind: 18mph
Humidity: 76%   Direction: 10°N
Pressure: 29.86"   Gusts: NA
Location:  42.36°N, 71.13°W
Report Text: KBOS 011313Z 01016KT 10SM BKN015 BKN033 OVC095 07/03 A2986 RMK AO2
Loading
Personal Weather Stations






























Interactive Weather Map
Tropical Storm Tracking
New forecast layout! Learn more

10-Day Weather Forecast

Advertisements
Track Severe Weather on mobile